sensor_id;sensor_type;location;lat;lon;timestamp;temperature;humidity
9466;DHT22;4771;48.726;9.006;2023-04-22T00:00:23;11.60;99.90
9466;DHT22;4771;48.726;9.006;2023-04-22T00:02:51;11.60;99.90
9466;DHT22;4771;48.726;9.006;2023-04-22T00:05:20;11.60;99.90
9466;DHT22;4771;48.726;9.006;2023-04-22T00:07:52;11.60;99.90
9466;DHT22;4771;48.726;9.006;2023-04-22T00:10:19;11.70;99.90
9466;DHT22;4771;48.726;9.006;2023-04-22T00:12:49;11.60;99.90
9466;DHT22;4771;48.726;9.006;2023-04-22T00:15:16;11.60;99.90
9466;DHT22;4771;48.726;9.006;2023-04-22T00:17:46;11.60;99.90
9466;DHT22;4771;48.726;9.006;2023-04-22T00:20:12;11.60;99.90
9466;DHT22;4771;48.726;9.006;2023-04-22T00:22:39;11.60;99.90
9466;DHT22;4771;48.726;9.006;2023-04-22T00:25:08;11.50;99.90
9466;DHT22;4771;48.726;9.006;2023-04-22T00:27:35;11.50;99.90
9466;DHT22;4771;48.726;9.006;2023-04-22T00:30:03;11.50;99.90
9466;DHT22;4771;48.726;9.006;2023-04-22T00:32:30;11.50;99.90
9466;DHT22;4771;48.726;9.006;2023-04-22T00:34:57;11.50;99.90
9466;DHT22;4771;48.726;9.006;2023-04-22T00:37:24;11.50;99.90
9466;DHT22;4771;48.726;9.006;2023-04-22T00:39:51;11.40;99.90
9466;DHT22;4771;48.726;9.006;2023-04-22T00:42:20;11.40;99.90
9466;DHT22;4771;48.726;9.006;2023-04-22T00:44:47;11.50;99.90
9466;DHT22;4771;48.726;9.006;2023-04-22T00:47:16;11.40;99.90
9466;DHT22;4771;48.726;9.006;2023-04-22T00:49:45;11.30;99.90
9466;DHT22;4771;48.726;9.006;2023-04-22T00:52:12;11.30;99.90
9466;DHT22;4771;48.726;9.006;2023-04-22T00:54:39;11.30;99.90
9466;DHT22;4771;48.726;9.006;2023-04-22T00:57:06;11.30;99.90
9466;DHT22;4771;48.726;9.006;2023-04-22T00:59:34;11.20;99.90
9466;DHT22;4771;48.726;9.006;2023-04-22T01:02:02;11.30;99.90
9466;DHT22;4771;48.726;9.006;2023-04-22T01:04:29;11.20;99.90
9466;DHT22;4771;48.726;9.006;2023-04-22T01:06:56;11.20;99.90
9466;DHT22;4771;48.726;9.006;2023-04-22T01:09:23;11.20;99.90
9466;DHT22;4771;48.726;9.006;2023-04-22T01:11:51;11.30;99.90
9466;DHT22;4771;48.726;9.006;2023-04-22T01:14:17;11.20;99.90
9466;DHT22;4771;48.726;9.006;2023-04-22T01:16:46;11.20;99.90
9466;DHT22;4771;48.726;9.006;2023-04-22T01:19:13;11.10;99.90
9466;DHT22;4771;48.726;9.006;2023-04-22T01:21:42;11.10;99.90
9466;DHT22;4771;48.726;9.006;2023-04-22T01:24:12;11.10;99.90
9466;DHT22;4771;48.726;9.006;2023-04-22T01:26:39;11.10;99.90
9466;DHT22;4771;48.726;9.006;2023-04-22T01:29:08;11.10;99.90
9466;DHT22;4771;48.726;9.006;2023-04-22T01:31:37;11.00;99.90
9466;DHT22;4771;48.726;9.006;2023-04-22T01:34:04;10.90;99.90
9466;DHT22;4771;48.726;9.006;2023-04-22T01:36:32;10.80;99.90
9466;DHT22;4771;48.726;9.006;2023-04-22T01:39:02;10.90;99.90
9466;DHT22;4771;48.726;9.006;2023-04-22T01:41:30;10.90;99.90
9466;DHT22;4771;48.726;9.006;2023-04-22T01:43:57;10.90;99.90
9466;DHT22;4771;48.726;9.006;2023-04-22T01:46:25;10.90;99.90
9466;DHT22;4771;48.726;9.006;2023-04-22T01:48:52;10.90;99.90
9466;DHT22;4771;48.726;9.006;2023-04-22T01:51:19;11.00;99.90
9466;DHT22;4771;48.726;9.006;2023-04-22T01:53:47;10.90;99.90
9466;DHT22;4771;48.726;9.006;2023-04-22T01:56:14;10.90;99.90
9466;DHT22;4771;48.726;9.006;2023-04-22T01:58:43;10.90;99.90
9466;DHT22;4771;48.726;9.006;2023-04-22T02:01:12;10.80;99.90
9466;DHT22;4771;48.726;9.006;2023-04-22T02:03:39;10.90;99.90
9466;DHT22;4771;48.726;9.006;2023-04-22T02:06:07;10.80;99.90
9466;DHT22;4771;48.726;9.006;2023-04-22T02:08:33;10.80;99.90
9466;DHT22;4771;48.726;9.006;2023-04-22T02:11:00;10.80;99.90
9466;DHT22;4771;48.726;9.006;2023-04-22T02:13:34;10.80;99.90
9466;DHT22;4771;48.726;9.006;2023-04-22T02:16:02;10.80;99.90
9466;DHT22;4771;48.726;9.006;2023-04-22T02:18:29;10.80;99.90
9466;DHT22;4771;48.726;9.006;2023-04-22T02:20:56;10.80;99.90
9466;DHT22;4771;48.726;9.006;2023-04-22T02:23:23;10.80;99.90
9466;DHT22;4771;48.726;9.006;2023-04-22T02:25:51;10.90;99.90
9466;DHT22;4771;48.726;9.006;2023-04-22T02:28:19;10.70;99.90
9466;DHT22;4771;48.726;9.006;2023-04-22T02:30:46;10.70;99.90
9466;DHT22;4771;48.726;9.006;2023-04-22T02:33:14;10.70;99.90
9466;DHT22;4771;48.726;9.006;2023-04-22T02:35:41;10.80;99.90
9466;DHT22;4771;48.726;9.006;2023-04-22T02:38:09;10.70;99.90
9466;DHT22;4771;48.726;9.006;2023-04-22T02:40:36;10.80;99.90
9466;DHT22;4771;48.726;9.006;2023-04-22T02:43:03;10.70;99.90
9466;DHT22;4771;48.726;9.006;2023-04-22T02:45:30;10.60;99.90
9466;DHT22;4771;48.726;9.006;2023-04-22T02:47:57;10.60;99.90
9466;DHT22;4771;48.726;9.006;2023-04-22T02:50:25;10.70;99.90
9466;DHT22;4771;48.726;9.006;2023-04-22T02:52:52;10.60;99.90
9466;DHT22;4771;48.726;9.006;2023-04-22T02:55:19;10.60;99.90
9466;DHT22;4771;48.726;9.006;2023-04-22T02:57:46;10.60;99.90
9466;DHT22;4771;48.726;9.006;2023-04-22T03:00:13;10.50;99.90
9466;DHT22;4771;48.726;9.006;2023-04-22T03:02:40;10.50;99.90
9466;DHT22;4771;48.726;9.006;2023-04-22T03:05:07;10.40;99.90
9466;DHT22;4771;48.726;9.006;2023-04-22T03:07:36;10.40;99.90
9466;DHT22;4771;48.726;9.006;2023-04-22T03:10:04;10.40;99.90
9466;DHT22;4771;48.726;9.006;2023-04-22T03:12:31;10.40;99.90
9466;DHT22;4771;48.726;9.006;2023-04-22T03:14:58;10.30;99.90
9466;DHT22;4771;48.726;9.006;2023-04-22T03:17:25;10.30;99.90
9466;DHT22;4771;48.726;9.006;2023-04-22T03:19:52;10.30;99.90
9466;DHT22;4771;48.726;9.006;2023-04-22T03:22:19;10.30;99.90
9466;DHT22;4771;48.726;9.006;2023-04-22T03:24:47;10.30;99.90
9466;DHT22;4771;48.726;9.006;2023-04-22T03:27:14;10.30;99.90
9466;DHT22;4771;48.726;9.006;2023-04-22T03:29:41;10.20;99.90
9466;DHT22;4771;48.726;9.006;2023-04-22T03:32:08;10.30;99.90
9466;DHT22;4771;48.726;9.006;2023-04-22T03:34:35;10.20;99.90
9466;DHT22;4771;48.726;9.006;2023-04-22T03:37:02;10.20;99.90
9466;DHT22;4771;48.726;9.006;2023-04-22T03:39:29;10.20;99.90
9466;DHT22;4771;48.726;9.006;2023-04-22T03:41:57;10.10;99.90
9466;DHT22;4771;48.726;9.006;2023-04-22T03:44:24;10.10;99.90
9466;DHT22;4771;48.726;9.006;2023-04-22T03:46:51;10.20;99.90
9466;DHT22;4771;48.726;9.006;2023-04-22T03:49:18;10.20;99.90
9466;DHT22;4771;48.726;9.006;2023-04-22T03:51:45;10.10;99.90
9466;DHT22;4771;48.726;9.006;2023-04-22T03:54:12;10.10;99.90
9466;DHT22;4771;48.726;9.006;2023-04-22T03:56:38;10.00;99.90
9466;DHT22;4771;48.726;9.006;2023-04-22T03:59:07;10.00;99.90
9466;DHT22;4771;48.726;9.006;2023-04-22T04:01:34;10.00;99.90
9466;DHT22;4771;48.726;9.006;2023-04-22T04:04:01;10.00;99.90
9466;DHT22;4771;48.726;9.006;2023-04-22T04:06:28;9.90;99.90
9466;DHT22;4771;48.726;9.006;2023-04-22T04:08:55;10.00;99.90
9466;DHT22;4771;48.726;9.006;2023-04-22T04:11:22;10.00;99.90
9466;DHT22;4771;48.726;9.006;2023-04-22T04:13:49;9.90;99.90
9466;DHT22;4771;48.726;9.006;2023-04-22T04:16:17;10.00;99.90
9466;DHT22;4771;48.726;9.006;2023-04-22T04:18:44;9.90;99.90
9466;DHT22;4771;48.726;9.006;2023-04-22T04:21:11;9.90;99.90
9466;DHT22;4771;48.726;9.006;2023-04-22T04:23:37;9.80;99.90
9466;DHT22;4771;48.726;9.006;2023-04-22T04:26:04;9.90;99.90
9466;DHT22;4771;48.726;9.006;2023-04-22T04:28:32;9.80;99.90
9466;DHT22;4771;48.726;9.006;2023-04-22T04:30:59;9.90;99.90
9466;DHT22;4771;48.726;9.006;2023-04-22T04:33:28;9.80;99.90
9466;DHT22;4771;48.726;9.006;2023-04-22T04:35:57;9.90;99.90
9466;DHT22;4771;48.726;9.006;2023-04-22T04:38:24;9.90;99.90
9466;DHT22;4771;48.726;9.006;2023-04-22T04:40:52;9.90;99.90
9466;DHT22;4771;48.726;9.006;2023-04-22T04:43:22;9.90;99.90
9466;DHT22;4771;48.726;9.006;2023-04-22T04:45:51;9.90;99.90
9466;DHT22;4771;48.726;9.006;2023-04-22T04:48:18;9.80;99.90
9466;DHT22;4771;48.726;9.006;2023-04-22T04:50:46;9.90;99.90
9466;DHT22;4771;48.726;9.006;2023-04-22T04:53:15;9.90;99.90
9466;DHT22;4771;48.726;9.006;2023-04-22T04:55:42;9.90;99.90
9466;DHT22;4771;48.726;9.006;2023-04-22T04:58:08;10.00;99.90
9466;DHT22;4771;48.726;9.006;2023-04-22T05:00:35;10.00;99.90
9466;DHT22;4771;48.726;9.006;2023-04-22T05:03:02;10.00;99.90
9466;DHT22;4771;48.726;9.006;2023-04-22T05:05:29;10.00;99.90
9466;DHT22;4771;48.726;9.006;2023-04-22T05:07:58;10.00;99.90
9466;DHT22;4771;48.726;9.006;2023-04-22T05:10:25;10.00;99.90
9466;DHT22;4771;48.726;9.006;2023-04-22T05:12:53;10.00;99.90
9466;DHT22;4771;48.726;9.006;2023-04-22T05:15:20;10.10;99.90
9466;DHT22;4771;48.726;9.006;2023-04-22T05:17:47;10.20;99.90
9466;DHT22;4771;48.726;9.006;2023-04-22T05:20:14;10.10;99.90
9466;DHT22;4771;48.726;9.006;2023-04-22T05:22:41;10.20;99.90
9466;DHT22;4771;48.726;9.006;2023-04-22T05:25:11;10.20;99.90
9466;DHT22;4771;48.726;9.006;2023-04-22T05:27:38;10.30;99.90
9466;DHT22;4771;48.726;9.006;2023-04-22T05:30:06;10.30;99.90
9466;DHT22;4771;48.726;9.006;2023-04-22T05:32:34;10.30;99.90
9466;DHT22;4771;48.726;9.006;2023-04-22T05:35:01;10.30;99.90
9466;DHT22;4771;48.726;9.006;2023-04-22T05:37:28;10.40;99.90
9466;DHT22;4771;48.726;9.006;2023-04-22T05:39:55;10.50;99.90
9466;DHT22;4771;48.726;9.006;2023-04-22T05:42:23;10.50;99.90
9466;DHT22;4771;48.726;9.006;2023-04-22T05:44:50;10.50;99.90
9466;DHT22;4771;48.726;9.006;2023-04-22T05:47:17;10.60;99.90
9466;DHT22;4771;48.726;9.006;2023-04-22T05:49:44;10.60;99.90
9466;DHT22;4771;48.726;9.006;2023-04-22T05:52:11;10.60;99.90
9466;DHT22;4771;48.726;9.006;2023-04-22T05:54:38;10.60;99.90
9466;DHT22;4771;48.726;9.006;2023-04-22T05:57:05;10.70;99.90
9466;DHT22;4771;48.726;9.006;2023-04-22T05:59:33;10.60;99.90
9466;DHT22;4771;48.726;9.006;2023-04-22T06:02:00;10.60;99.90
9466;DHT22;4771;48.726;9.006;2023-04-22T06:04:27;10.70;99.90
9466;DHT22;4771;48.726;9.006;2023-04-22T06:06:55;10.70;99.90
9466;DHT22;4771;48.726;9.006;2023-04-22T06:09:22;10.80;99.90
9466;DHT22;4771;48.726;9.006;2023-04-22T06:11:49;10.90;99.90
9466;DHT22;4771;48.726;9.006;2023-04-22T06:14:16;10.90;99.90
9466;DHT22;4771;48.726;9.006;2023-04-22T06:16:44;11.00;99.90
9466;DHT22;4771;48.726;9.006;2023-04-22T06:19:11;11.00;99.90
9466;DHT22;4771;48.726;9.006;2023-04-22T06:21:38;11.00;99.90
9466;DHT22;4771;48.726;9.006;2023-04-22T06:24:06;11.20;99.90
9466;DHT22;4771;48.726;9.006;2023-04-22T06:26:35;11.20;99.90
9466;DHT22;4771;48.726;9.006;2023-04-22T06:29:02;11.30;99.90
9466;DHT22;4771;48.726;9.006;2023-04-22T06:31:33;11.30;99.90
9466;DHT22;4771;48.726;9.006;2023-04-22T06:34:01;11.40;99.90
9466;DHT22;4771;48.726;9.006;2023-04-22T06:36:28;11.40;99.90
9466;DHT22;4771;48.726;9.006;2023-04-22T06:38:57;11.60;99.90
9466;DHT22;4771;48.726;9.006;2023-04-22T06:41:24;11.60;99.90
9466;DHT22;4771;48.726;9.006;2023-04-22T06:43:51;11.60;99.90
9466;DHT22;4771;48.726;9.006;2023-04-22T06:46:18;11.80;99.90
9466;DHT22;4771;48.726;9.006;2023-04-22T06:48:45;11.70;99.90
9466;DHT22;4771;48.726;9.006;2023-04-22T06:51:13;11.80;99.90
9466;DHT22;4771;48.726;9.006;2023-04-22T06:53:40;11.80;99.90
9466;DHT22;4771;48.726;9.006;2023-04-22T06:56:07;11.90;99.90
9466;DHT22;4771;48.726;9.006;2023-04-22T06:58:34;11.90;99.90
9466;DHT22;4771;48.726;9.006;2023-04-22T07:01:00;11.90;99.90
9466;DHT22;4771;48.726;9.006;2023-04-22T07:03:27;11.90;99.90
9466;DHT22;4771;48.726;9.006;2023-04-22T07:05:54;11.90;99.90
9466;DHT22;4771;48.726;9.006;2023-04-22T07:08:25;12.00;99.90
9466;DHT22;4771;48.726;9.006;2023-04-22T07:10:52;12.00;99.90
9466;DHT22;4771;48.726;9.006;2023-04-22T07:13:19;12.10;99.90
9466;DHT22;4771;48.726;9.006;2023-04-22T07:15:46;12.10;99.90
9466;DHT22;4771;48.726;9.006;2023-04-22T07:18:13;12.10;99.90
9466;DHT22;4771;48.726;9.006;2023-04-22T07:20:39;12.20;99.90
9466;DHT22;4771;48.726;9.006;2023-04-22T07:23:06;12.20;99.90
9466;DHT22;4771;48.726;9.006;2023-04-22T07:25:35;12.30;99.90
9466;DHT22;4771;48.726;9.006;2023-04-22T07:28:02;12.30;99.90
9466;DHT22;4771;48.726;9.006;2023-04-22T07:30:29;12.40;99.90
9466;DHT22;4771;48.726;9.006;2023-04-22T07:32:55;12.40;99.90
9466;DHT22;4771;48.726;9.006;2023-04-22T07:35:22;12.50;99.90
9466;DHT22;4771;48.726;9.006;2023-04-22T07:37:49;12.50;99.90
9466;DHT22;4771;48.726;9.006;2023-04-22T07:40:16;12.60;99.90
9466;DHT22;4771;48.726;9.006;2023-04-22T07:42:44;12.60;99.90
9466;DHT22;4771;48.726;9.006;2023-04-22T07:45:12;12.70;99.90
9466;DHT22;4771;48.726;9.006;2023-04-22T07:47:39;12.80;99.90
9466;DHT22;4771;48.726;9.006;2023-04-22T07:50:06;12.80;99.90
9466;DHT22;4771;48.726;9.006;2023-04-22T07:52:33;12.90;99.90
9466;DHT22;4771;48.726;9.006;2023-04-22T07:55:00;12.90;99.90
9466;DHT22;4771;48.726;9.006;2023-04-22T07:57:27;13.00;99.90
9466;DHT22;4771;48.726;9.006;2023-04-22T07:59:55;13.00;99.90
9466;DHT22;4771;48.726;9.006;2023-04-22T08:02:22;13.00;99.90
9466;DHT22;4771;48.726;9.006;2023-04-22T08:04:49;13.10;99.90
9466;DHT22;4771;48.726;9.006;2023-04-22T08:07:16;13.10;99.90
9466;DHT22;4771;48.726;9.006;2023-04-22T08:09:43;13.10;99.90
9466;DHT22;4771;48.726;9.006;2023-04-22T08:12:10;13.20;99.90
9466;DHT22;4771;48.726;9.006;2023-04-22T08:14:38;13.20;99.90
9466;DHT22;4771;48.726;9.006;2023-04-22T08:17:07;13.30;99.90
9466;DHT22;4771;48.726;9.006;2023-04-22T08:19:34;13.30;99.90
9466;DHT22;4771;48.726;9.006;2023-04-22T08:22:01;13.40;99.90
9466;DHT22;4771;48.726;9.006;2023-04-22T08:24:27;13.40;99.90
9466;DHT22;4771;48.726;9.006;2023-04-22T08:26:54;13.50;99.90
9466;DHT22;4771;48.726;9.006;2023-04-22T08:29:21;13.50;99.90
9466;DHT22;4771;48.726;9.006;2023-04-22T08:31:48;13.60;99.90
9466;DHT22;4771;48.726;9.006;2023-04-22T08:34:16;13.70;99.90
9466;DHT22;4771;48.726;9.006;2023-04-22T08:36:43;13.80;99.90
9466;DHT22;4771;48.726;9.006;2023-04-22T08:39:10;13.80;99.90
9466;DHT22;4771;48.726;9.006;2023-04-22T08:41:38;13.90;99.90
9466;DHT22;4771;48.726;9.006;2023-04-22T08:44:05;13.90;99.90
9466;DHT22;4771;48.726;9.006;2023-04-22T08:46:32;14.00;99.90
9466;DHT22;4771;48.726;9.006;2023-04-22T08:49:00;14.10;99.90
9466;DHT22;4771;48.726;9.006;2023-04-22T08:51:31;14.20;99.90
9466;DHT22;4771;48.726;9.006;2023-04-22T08:53:58;14.30;99.90
9466;DHT22;4771;48.726;9.006;2023-04-22T08:56:25;14.40;99.90
9466;DHT22;4771;48.726;9.006;2023-04-22T08:58:53;14.50;99.90
9466;DHT22;4771;48.726;9.006;2023-04-22T09:01:21;14.60;99.90
9466;DHT22;4771;48.726;9.006;2023-04-22T09:03:48;14.70;99.90
9466;DHT22;4771;48.726;9.006;2023-04-22T09:06:16;14.80;99.90
9466;DHT22;4771;48.726;9.006;2023-04-22T09:08:47;15.00;99.90
9466;DHT22;4771;48.726;9.006;2023-04-22T09:11:15;15.10;99.90
9466;DHT22;4771;48.726;9.006;2023-04-22T09:13:42;15.20;99.90
9466;DHT22;4771;48.726;9.006;2023-04-22T09:16:09;15.30;99.90
9466;DHT22;4771;48.726;9.006;2023-04-22T09:18:40;15.40;99.90
9466;DHT22;4771;48.726;9.006;2023-04-22T09:21:07;15.50;99.90
9466;DHT22;4771;48.726;9.006;2023-04-22T09:23:44;15.50;99.90
9466;DHT22;4771;48.726;9.006;2023-04-22T09:26:12;15.60;99.90
9466;DHT22;4771;48.726;9.006;2023-04-22T09:28:48;15.70;99.90
9466;DHT22;4771;48.726;9.006;2023-04-22T09:31:15;15.70;99.90
9466;DHT22;4771;48.726;9.006;2023-04-22T09:33:46;15.90;99.90
9466;DHT22;4771;48.726;9.006;2023-04-22T09:36:14;16.00;99.90
9466;DHT22;4771;48.726;9.006;2023-04-22T09:38:50;16.00;99.90
9466;DHT22;4771;48.726;9.006;2023-04-22T09:41:25;16.20;99.90
9466;DHT22;4771;48.726;9.006;2023-04-22T09:43:54;16.50;99.90
9466;DHT22;4771;48.726;9.006;2023-04-22T09:46:22;16.50;99.90
9466;DHT22;4771;48.726;9.006;2023-04-22T09:48:50;16.60;99.90
9466;DHT22;4771;48.726;9.006;2023-04-22T09:51:18;16.70;99.90
9466;DHT22;4771;48.726;9.006;2023-04-22T09:53:56;16.90;99.90
9466;DHT22;4771;48.726;9.006;2023-04-22T09:56:40;16.90;99.60
9466;DHT22;4771;48.726;9.006;2023-04-22T09:59:07;17.00;98.60
9466;DHT22;4771;48.726;9.006;2023-04-22T10:01:35;17.20;99.90
9466;DHT22;4771;48.726;9.006;2023-04-22T10:04:02;17.30;96.10
9466;DHT22;4771;48.726;9.006;2023-04-22T10:06:29;17.30;93.70
9466;DHT22;4771;48.726;9.006;2023-04-22T10:08:58;17.50;97.70
9466;DHT22;4771;48.726;9.006;2023-04-22T10:11:25;17.90;95.80
9466;DHT22;4771;48.726;9.006;2023-04-22T10:13:53;18.00;96.40
9466;DHT22;4771;48.726;9.006;2023-04-22T10:16:22;18.10;90.70
9466;DHT22;4771;48.726;9.006;2023-04-22T10:18:50;18.30;70.20
9466;DHT22;4771;48.726;9.006;2023-04-22T10:21:18;18.50;70.30
9466;DHT22;4771;48.726;9.006;2023-04-22T10:23:46;18.60;63.00
9466;DHT22;4771;48.726;9.006;2023-04-22T10:26:38;18.70;59.20
9466;DHT22;4771;48.726;9.006;2023-04-22T10:29:07;18.90;54.10
9466;DHT22;4771;48.726;9.006;2023-04-22T10:31:36;19.00;52.80
9466;DHT22;4771;48.726;9.006;2023-04-22T10:34:11;19.20;46.70
9466;DHT22;4771;48.726;9.006;2023-04-22T10:36:56;19.20;47.20
9466;DHT22;4771;48.726;9.006;2023-04-22T10:39:24;19.30;45.70
9466;DHT22;4771;48.726;9.006;2023-04-22T10:42:06;19.30;45.40
9466;DHT22;4771;48.726;9.006;2023-04-22T10:44:47;19.40;44.80
9466;DHT22;4771;48.726;9.006;2023-04-22T10:47:29;19.40;44.80
9466;DHT22;4771;48.726;9.006;2023-04-22T10:50:16;19.60;42.80
9466;DHT22;4771;48.726;9.006;2023-04-22T10:52:47;19.80;40.20
9466;DHT22;4771;48.726;9.006;2023-04-22T10:55:14;19.90;44.90
9466;DHT22;4771;48.726;9.006;2023-04-22T10:57:42;20.00;40.90
9466;DHT22;4771;48.726;9.006;2023-04-22T11:00:38;19.90;40.30
9466;DHT22;4771;48.726;9.006;2023-04-22T11:03:08;20.00;39.60
9466;DHT22;4771;48.726;9.006;2023-04-22T11:05:36;20.10;41.20
9466;DHT22;4771;48.726;9.006;2023-04-22T11:08:05;20.20;43.00
9466;DHT22;4771;48.726;9.006;2023-04-22T11:10:35;20.40;37.50
9466;DHT22;4771;48.726;9.006;2023-04-22T11:13:05;20.40;38.10
9466;DHT22;4771;48.726;9.006;2023-04-22T11:15:36;20.50;39.20
9466;DHT22;4771;48.726;9.006;2023-04-22T11:18:07;20.50;38.00
9466;DHT22;4771;48.726;9.006;2023-04-22T11:20:35;20.60;40.70
9466;DHT22;4771;48.726;9.006;2023-04-22T11:23:02;20.70;40.00
9466;DHT22;4771;48.726;9.006;2023-04-22T11:25:30;20.80;41.20
9466;DHT22;4771;48.726;9.006;2023-04-22T11:27:57;20.90;37.80
9466;DHT22;4771;48.726;9.006;2023-04-22T11:30:26;21.00;36.10
9466;DHT22;4771;48.726;9.006;2023-04-22T11:32:55;21.00;36.10
9466;DHT22;4771;48.726;9.006;2023-04-22T11:35:25;21.00;36.90
9466;DHT22;4771;48.726;9.006;2023-04-22T11:37:54;21.10;35.80
9466;DHT22;4771;48.726;9.006;2023-04-22T11:40:23;21.10;36.30
9466;DHT22;4771;48.726;9.006;2023-04-22T11:42:51;21.10;37.10
9466;DHT22;4771;48.726;9.006;2023-04-22T11:45:19;21.10;37.40
9466;DHT22;4771;48.726;9.006;2023-04-22T11:47:47;21.10;38.50
9466;DHT22;4771;48.726;9.006;2023-04-22T11:50:17;21.00;36.60
9466;DHT22;4771;48.726;9.006;2023-04-22T11:52:47;21.00;36.70
9466;DHT22;4771;48.726;9.006;2023-04-22T11:55:16;21.00;37.80
9466;DHT22;4771;48.726;9.006;2023-04-22T11:57:49;21.00;36.70
9466;DHT22;4771;48.726;9.006;2023-04-22T12:00:17;21.00;36.50
9466;DHT22;4771;48.726;9.006;2023-04-22T12:02:57;21.00;37.60
9466;DHT22;4771;48.726;9.006;2023-04-22T12:05:37;21.10;36.80
9466;DHT22;4771;48.726;9.006;2023-04-22T12:08:09;21.20;40.30
9466;DHT22;4771;48.726;9.006;2023-04-22T12:10:41;21.20;38.60
9466;DHT22;4771;48.726;9.006;2023-04-22T12:13:09;21.20;38.50
9466;DHT22;4771;48.726;9.006;2023-04-22T12:15:37;21.20;39.40
9466;DHT22;4771;48.726;9.006;2023-04-22T12:18:04;21.20;38.10
9466;DHT22;4771;48.726;9.006;2023-04-22T12:20:32;21.20;39.10
9466;DHT22;4771;48.726;9.006;2023-04-22T12:23:01;21.30;36.90
9466;DHT22;4771;48.726;9.006;2023-04-22T12:25:29;21.30;34.70
9466;DHT22;4771;48.726;9.006;2023-04-22T12:27:58;21.40;33.50
9466;DHT22;4771;48.726;9.006;2023-04-22T12:30:25;21.50;33.00
9466;DHT22;4771;48.726;9.006;2023-04-22T12:32:52;21.40;31.60
9466;DHT22;4771;48.726;9.006;2023-04-22T12:35:19;21.40;33.50
9466;DHT22;4771;48.726;9.006;2023-04-22T12:37:46;21.50;31.10
9466;DHT22;4771;48.726;9.006;2023-04-22T12:40:15;21.40;31.30
9466;DHT22;4771;48.726;9.006;2023-04-22T12:42:41;21.10;32.10
9466;DHT22;4771;48.726;9.006;2023-04-22T12:45:09;21.10;30.20
9466;DHT22;4771;48.726;9.006;2023-04-22T12:47:36;20.90;30.70
9466;DHT22;4771;48.726;9.006;2023-04-22T12:50:04;20.70;30.20
9466;DHT22;4771;48.726;9.006;2023-04-22T12:52:33;20.60;30.40
9466;DHT22;4771;48.726;9.006;2023-04-22T12:55:00;20.60;32.20
9466;DHT22;4771;48.726;9.006;2023-04-22T12:57:28;20.40;31.30
9466;DHT22;4771;48.726;9.006;2023-04-22T12:59:57;20.40;32.50
9466;DHT22;4771;48.726;9.006;2023-04-22T13:02:24;20.30;31.20
9466;DHT22;4771;48.726;9.006;2023-04-22T13:04:50;20.20;33.60
9466;DHT22;4771;48.726;9.006;2023-04-22T13:07:17;20.20;33.10
9466;DHT22;4771;48.726;9.006;2023-04-22T13:09:44;20.00;32.00
9466;DHT22;4771;48.726;9.006;2023-04-22T13:12:11;20.00;32.20
9466;DHT22;4771;48.726;9.006;2023-04-22T13:14:40;20.00;34.50
9466;DHT22;4771;48.726;9.006;2023-04-22T13:17:07;19.90;33.60
9466;DHT22;4771;48.726;9.006;2023-04-22T13:19:34;19.90;34.30
9466;DHT22;4771;48.726;9.006;2023-04-22T13:22:01;19.90;36.30
9466;DHT22;4771;48.726;9.006;2023-04-22T13:24:28;19.90;35.30
9466;DHT22;4771;48.726;9.006;2023-04-22T13:26:55;19.80;34.70
9466;DHT22;4771;48.726;9.006;2023-04-22T13:29:24;19.80;36.00
9466;DHT22;4771;48.726;9.006;2023-04-22T13:31:52;19.80;34.60
9466;DHT22;4771;48.726;9.006;2023-04-22T13:34:19;19.70;35.60
9466;DHT22;4771;48.726;9.006;2023-04-22T13:36:46;19.70;36.00
9466;DHT22;4771;48.726;9.006;2023-04-22T13:39:13;19.70;38.00
9466;DHT22;4771;48.726;9.006;2023-04-22T13:41:40;19.70;36.10
9466;DHT22;4771;48.726;9.006;2023-04-22T13:44:07;19.60;35.10
9466;DHT22;4771;48.726;9.006;2023-04-22T13:46:36;19.50;36.40
9466;DHT22;4771;48.726;9.006;2023-04-22T13:49:04;19.50;35.80
9466;DHT22;4771;48.726;9.006;2023-04-22T13:51:31;19.50;37.20
9466;DHT22;4771;48.726;9.006;2023-04-22T13:53:58;19.50;37.20
9466;DHT22;4771;48.726;9.006;2023-04-22T13:56:25;19.50;38.90
9466;DHT22;4771;48.726;9.006;2023-04-22T13:58:53;19.50;37.30
9466;DHT22;4771;48.726;9.006;2023-04-22T14:01:20;19.50;37.70
9466;DHT22;4771;48.726;9.006;2023-04-22T14:03:47;19.50;38.60
9466;DHT22;4771;48.726;9.006;2023-04-22T14:06:16;19.40;39.00
9466;DHT22;4771;48.726;9.006;2023-04-22T14:08:43;19.50;38.10
9466;DHT22;4771;48.726;9.006;2023-04-22T14:11:11;19.40;39.60
9466;DHT22;4771;48.726;9.006;2023-04-22T14:13:38;19.40;39.70
9466;DHT22;4771;48.726;9.006;2023-04-22T14:16:05;19.40;42.60
9466;DHT22;4771;48.726;9.006;2023-04-22T14:18:34;19.40;42.10
9466;DHT22;4771;48.726;9.006;2023-04-22T14:21:02;19.30;41.10
9466;DHT22;4771;48.726;9.006;2023-04-22T14:23:31;19.30;39.30
9466;DHT22;4771;48.726;9.006;2023-04-22T14:25:58;19.30;41.10
9466;DHT22;4771;48.726;9.006;2023-04-22T14:28:25;19.30;41.10
9466;DHT22;4771;48.726;9.006;2023-04-22T14:30:53;19.20;41.20
9466;DHT22;4771;48.726;9.006;2023-04-22T14:33:20;19.20;40.50
9466;DHT22;4771;48.726;9.006;2023-04-22T14:35:48;19.20;40.60
9466;DHT22;4771;48.726;9.006;2023-04-22T14:38:15;19.20;42.50
9466;DHT22;4771;48.726;9.006;2023-04-22T14:40:44;19.30;43.10
9466;DHT22;4771;48.726;9.006;2023-04-22T14:43:11;19.50;42.20
9466;DHT22;4771;48.726;9.006;2023-04-22T14:45:38;19.60;41.40
9466;DHT22;4771;48.726;9.006;2023-04-22T14:48:05;19.70;41.30
9466;DHT22;4771;48.726;9.006;2023-04-22T14:50:32;19.60;41.70
9466;DHT22;4771;48.726;9.006;2023-04-22T14:52:59;19.50;41.70
9466;DHT22;4771;48.726;9.006;2023-04-22T14:55:26;19.50;42.50
9466;DHT22;4771;48.726;9.006;2023-04-22T14:57:55;19.50;42.50
9466;DHT22;4771;48.726;9.006;2023-04-22T15:00:23;19.40;43.20
9466;DHT22;4771;48.726;9.006;2023-04-22T15:02:50;19.40;44.20
9466;DHT22;4771;48.726;9.006;2023-04-22T15:05:17;19.40;44.50
9466;DHT22;4771;48.726;9.006;2023-04-22T15:07:44;19.30;45.00
9466;DHT22;4771;48.726;9.006;2023-04-22T15:10:11;19.30;45.80
9466;DHT22;4771;48.726;9.006;2023-04-22T15:12:38;19.20;44.60
9466;DHT22;4771;48.726;9.006;2023-04-22T15:15:07;19.20;44.70
9466;DHT22;4771;48.726;9.006;2023-04-22T15:17:37;19.20;43.20
9466;DHT22;4771;48.726;9.006;2023-04-22T15:20:05;19.10;44.40
9466;DHT22;4771;48.726;9.006;2023-04-22T15:22:32;19.10;46.00
9466;DHT22;4771;48.726;9.006;2023-04-22T15:24:59;19.10;45.30
9466;DHT22;4771;48.726;9.006;2023-04-22T15:27:26;19.00;47.10
9466;DHT22;4771;48.726;9.006;2023-04-22T15:29:53;19.00;45.90
9466;DHT22;4771;48.726;9.006;2023-04-22T15:32:21;19.00;45.90
9466;DHT22;4771;48.726;9.006;2023-04-22T15:34:48;18.90;45.70
9466;DHT22;4771;48.726;9.006;2023-04-22T15:37:15;18.90;45.50
9466;DHT22;4771;48.726;9.006;2023-04-22T15:39:42;18.80;46.40
9466;DHT22;4771;48.726;9.006;2023-04-22T15:42:09;18.80;46.60
9466;DHT22;4771;48.726;9.006;2023-04-22T15:44:36;18.70;47.60
9466;DHT22;4771;48.726;9.006;2023-04-22T15:47:03;18.70;49.00
9466;DHT22;4771;48.726;9.006;2023-04-22T15:49:31;18.70;48.30
9466;DHT22;4771;48.726;9.006;2023-04-22T15:51:58;18.60;49.90
9466;DHT22;4771;48.726;9.006;2023-04-22T15:54:25;18.60;48.30
9466;DHT22;4771;48.726;9.006;2023-04-22T15:56:52;18.60;48.20
9466;DHT22;4771;48.726;9.006;2023-04-22T15:59:19;18.50;49.00
9466;DHT22;4771;48.726;9.006;2023-04-22T16:01:46;18.50;48.50
9466;DHT22;4771;48.726;9.006;2023-04-22T16:04:13;18.50;49.60
9466;DHT22;4771;48.726;9.006;2023-04-22T16:06:41;18.50;49.70